sensor_id;sensor_type;location;lat;lon;timestamp;pressure;altitude;pressure_sealevel;temperature;humidity
37778;BME280;23615;51.506;7.678;2023-04-27T00:00:35;100374.53;;;5.44;84.69
37778;BME280;23615;51.506;7.678;2023-04-27T00:03:00;100371.59;;;5.39;85.08
37778;BME280;23615;51.506;7.678;2023-04-27T00:05:32;100371.16;;;5.35;84.44
37778;BME280;23615;51.506;7.678;2023-04-27T00:07:57;100371.25;;;5.27;84.73
37778;BME280;23615;51.506;7.678;2023-04-27T00:10:23;100381.34;;;5.23;84.58
37778;BME280;23615;51.506;7.678;2023-04-27T00:12:48;100383.91;;;5.17;84.61
37778;BME280;23615;51.506;7.678;2023-04-27T00:15:13;100376.31;;;5.14;84.85
37778;BME280;23615;51.506;7.678;2023-04-27T00:17:39;100378.13;;;5.13;84.51
37778;BME280;23615;51.506;7.678;2023-04-27T00:20:05;100379.69;;;5.08;84.17
37778;BME280;23615;51.506;7.678;2023-04-27T00:22:32;100381.41;;;5.01;83.75
37778;BME280;23615;51.506;7.678;2023-04-27T00:24:58;100378.81;;;4.93;83.97
37778;BME280;23615;51.506;7.678;2023-04-27T00:27:23;100375.88;;;4.87;83.86
37778;BME280;23615;51.506;7.678;2023-04-27T00:29:48;100378.88;;;4.84;83.65
37778;BME280;23615;51.506;7.678;2023-04-27T00:32:14;100381.59;;;4.76;83.65
37778;BME280;23615;51.506;7.678;2023-04-27T00:34:39;100371.56;;;4.72;84.02
37778;BME280;23615;51.506;7.678;2023-04-27T00:37:04;100377.38;;;4.67;83.98
37778;BME280;23615;51.506;7.678;2023-04-27T00:39:33;100380.72;;;4.61;83.69
37778;BME280;23615;51.506;7.678;2023-04-27T00:41:59;100382.72;;;4.59;83.78
37778;BME280;23615;51.506;7.678;2023-04-27T00:44:25;100385.41;;;4.51;83.33
37778;BME280;23615;51.506;7.678;2023-04-27T00:46:51;100377.38;;;4.44;83.88
37778;BME280;23615;51.506;7.678;2023-04-27T00:49:18;100381.19;;;4.42;83.21
37778;BME280;23615;51.506;7.678;2023-04-27T00:51:43;100380.53;;;4.40;83.44
37778;BME280;23615;51.506;7.678;2023-04-27T00:54:09;100397.38;;;4.39;83.20
37778;BME280;23615;51.506;7.678;2023-04-27T00:56:35;100391.47;;;4.29;83.43
37778;BME280;23615;51.506;7.678;2023-04-27T00:59:00;100385.75;;;4.25;83.42
37778;BME280;23615;51.506;7.678;2023-04-27T01:01:26;100397.78;;;4.28;83.85
37778;BME280;23615;51.506;7.678;2023-04-27T01:03:51;100397.47;;;4.23;83.73
37778;BME280;23615;51.506;7.678;2023-04-27T01:06:17;100396.53;;;4.16;84.03
37778;BME280;23615;51.506;7.678;2023-04-27T01:08:42;100394.75;;;4.08;83.85
37778;BME280;23615;51.506;7.678;2023-04-27T01:11:07;100400.88;;;4.00;83.75
37778;BME280;23615;51.506;7.678;2023-04-27T01:13:33;100406.16;;;4.00;83.99
37778;BME280;23615;51.506;7.678;2023-04-27T01:15:58;100400.25;;;3.90;83.69
37778;BME280;23615;51.506;7.678;2023-04-27T01:18:23;100401.75;;;3.85;83.59
37778;BME280;23615;51.506;7.678;2023-04-27T01:20:48;100405.38;;;3.84;84.17
37778;BME280;23615;51.506;7.678;2023-04-27T01:23:14;100410.84;;;3.82;84.45
37778;BME280;23615;51.506;7.678;2023-04-27T01:25:41;100407.22;;;3.75;83.98
37778;BME280;23615;51.506;7.678;2023-04-27T01:28:06;100415.66;;;3.70;84.48
37778;BME280;23615;51.506;7.678;2023-04-27T01:30:32;100410.72;;;3.67;84.31
37778;BME280;23615;51.506;7.678;2023-04-27T01:32:57;100416.31;;;3.64;84.45
37778;BME280;23615;51.506;7.678;2023-04-27T01:35:22;100422.63;;;3.63;85.00
37778;BME280;23615;51.506;7.678;2023-04-27T01:37:47;100424.06;;;3.66;84.46
37778;BME280;23615;51.506;7.678;2023-04-27T01:40:13;100416.66;;;3.69;84.45
37778;BME280;23615;51.506;7.678;2023-04-27T01:42:39;100420.44;;;3.67;84.52
37778;BME280;23615;51.506;7.678;2023-04-27T01:45:04;100421.28;;;3.67;84.01
37778;BME280;23615;51.506;7.678;2023-04-27T01:47:30;100417.66;;;3.60;84.66
37778;BME280;23615;51.506;7.678;2023-04-27T01:49:55;100420.16;;;3.54;84.70
37778;BME280;23615;51.506;7.678;2023-04-27T01:52:21;100420.81;;;3.48;84.81
37778;BME280;23615;51.506;7.678;2023-04-27T01:54:46;100429.25;;;3.43;85.00
37778;BME280;23615;51.506;7.678;2023-04-27T01:57:11;100427.44;;;3.35;85.36
37778;BME280;23615;51.506;7.678;2023-04-27T01:59:38;100432.88;;;3.34;86.15
37778;BME280;23615;51.506;7.678;2023-04-27T02:02:03;100432.72;;;3.44;85.59
37778;BME280;23615;51.506;7.678;2023-04-27T02:04:28;100427.44;;;3.35;86.00
37778;BME280;23615;51.506;7.678;2023-04-27T02:06:54;100431.91;;;3.35;86.23
37778;BME280;23615;51.506;7.678;2023-04-27T02:09:19;100435.38;;;3.35;86.18
37778;BME280;23615;51.506;7.678;2023-04-27T02:11:45;100436.66;;;3.39;86.36
37778;BME280;23615;51.506;7.678;2023-04-27T02:14:10;100439.47;;;3.30;86.70
37778;BME280;23615;51.506;7.678;2023-04-27T02:16:35;100440.16;;;3.24;87.12
37778;BME280;23615;51.506;7.678;2023-04-27T02:19:00;100445.41;;;3.24;88.04
37778;BME280;23615;51.506;7.678;2023-04-27T02:21:27;100441.13;;;3.31;87.76
37778;BME280;23615;51.506;7.678;2023-04-27T02:23:52;100440.44;;;3.29;87.82
37778;BME280;23615;51.506;7.678;2023-04-27T02:26:19;100443.44;;;3.34;88.10
37778;BME280;23615;51.506;7.678;2023-04-27T02:28:45;100444.25;;;3.34;88.19
37778;BME280;23615;51.506;7.678;2023-04-27T02:31:11;100438.47;;;3.39;88.50
37778;BME280;23615;51.506;7.678;2023-04-27T02:33:38;100437.16;;;3.35;88.80
37778;BME280;23615;51.506;7.678;2023-04-27T02:36:03;100447.88;;;3.42;88.64
37778;BME280;23615;51.506;7.678;2023-04-27T02:38:29;100436.81;;;3.38;88.79
37778;BME280;23615;51.506;7.678;2023-04-27T02:40:54;100436.34;;;3.43;88.00
37778;BME280;23615;51.506;7.678;2023-04-27T02:43:20;100436.00;;;3.37;88.78
37778;BME280;23615;51.506;7.678;2023-04-27T02:45:45;100434.69;;;3.33;89.12
37778;BME280;23615;51.506;7.678;2023-04-27T02:48:10;100433.56;;;3.36;88.70
37778;BME280;23615;51.506;7.678;2023-04-27T02:50:43;100431.41;;;3.31;88.93
37778;BME280;23615;51.506;7.678;2023-04-27T02:53:09;100437.34;;;3.25;89.15
37778;BME280;23615;51.506;7.678;2023-04-27T02:55:35;100434.53;;;3.27;89.25
37778;BME280;23615;51.506;7.678;2023-04-27T02:58:00;100434.88;;;3.24;89.76
37778;BME280;23615;51.506;7.678;2023-04-27T03:00:25;100426.13;;;3.23;90.15
37778;BME280;23615;51.506;7.678;2023-04-27T03:02:51;100421.53;;;3.25;89.41
37778;BME280;23615;51.506;7.678;2023-04-27T03:05:16;100421.69;;;3.24;89.69
37778;BME280;23615;51.506;7.678;2023-04-27T03:07:41;100420.84;;;3.23;89.29
37778;BME280;23615;51.506;7.678;2023-04-27T03:10:07;100426.47;;;3.20;89.85
37778;BME280;23615;51.506;7.678;2023-04-27T03:12:33;100430.06;;;3.19;89.44
37778;BME280;23615;51.506;7.678;2023-04-27T03:14:58;100424.81;;;3.19;89.63
37778;BME280;23615;51.506;7.678;2023-04-27T03:17:24;100421.84;;;3.14;89.20
37778;BME280;23615;51.506;7.678;2023-04-27T03:19:49;100413.28;;;3.12;89.58
37778;BME280;23615;51.506;7.678;2023-04-27T03:22:15;100419.22;;;3.14;89.63
37778;BME280;23615;51.506;7.678;2023-04-27T03:24:40;100419.53;;;3.11;89.30
37778;BME280;23615;51.506;7.678;2023-04-27T03:27:05;100409.34;;;3.08;89.22
37778;BME280;23615;51.506;7.678;2023-04-27T03:29:31;100414.94;;;3.05;89.12
37778;BME280;23615;51.506;7.678;2023-04-27T03:31:56;100419.72;;;3.01;88.84
37778;BME280;23615;51.506;7.678;2023-04-27T03:34:22;100410.34;;;2.99;88.42
37778;BME280;23615;51.506;7.678;2023-04-27T03:36:47;100410.81;;;2.94;88.57
37778;BME280;23615;51.506;7.678;2023-04-27T03:39:13;100420.88;;;2.91;88.64
37778;BME280;23615;51.506;7.678;2023-04-27T03:41:38;100406.06;;;2.90;88.22
37778;BME280;23615;51.506;7.678;2023-04-27T03:44:03;100409.84;;;2.87;88.64
37778;BME280;23615;51.506;7.678;2023-04-27T03:46:28;100410.34;;;2.91;88.25
37778;BME280;23615;51.506;7.678;2023-04-27T03:48:54;100417.59;;;2.97;87.00
37778;BME280;23615;51.506;7.678;2023-04-27T03:51:19;100421.03;;;2.89;86.63
37778;BME280;23615;51.506;7.678;2023-04-27T03:53:45;100426.63;;;2.94;86.90
37778;BME280;23615;51.506;7.678;2023-04-27T03:56:10;100436.03;;;2.73;87.49
37778;BME280;23615;51.506;7.678;2023-04-27T03:58:35;100437.31;;;2.60;88.26
37778;BME280;23615;51.506;7.678;2023-04-27T04:01:01;100428.72;;;2.58;88.73
37778;BME280;23615;51.506;7.678;2023-04-27T04:03:26;100436.94;;;2.55;89.35
37778;BME280;23615;51.506;7.678;2023-04-27T04:05:51;100440.59;;;2.54;89.62
37778;BME280;23615;51.506;7.678;2023-04-27T04:08:16;100445.03;;;2.54;89.31
37778;BME280;23615;51.506;7.678;2023-04-27T04:10:42;100446.50;;;2.56;89.34
37778;BME280;23615;51.506;7.678;2023-04-27T04:13:07;100438.59;;;2.56;89.07
37778;BME280;23615;51.506;7.678;2023-04-27T04:15:32;100444.53;;;2.58;89.23
37778;BME280;23615;51.506;7.678;2023-04-27T04:17:57;100439.78;;;2.62;88.99
37778;BME280;23615;51.506;7.678;2023-04-27T04:20:23;100444.91;;;2.80;89.63
37778;BME280;23615;51.506;7.678;2023-04-27T04:22:48;100444.91;;;3.04;91.09
37778;BME280;23615;51.506;7.678;2023-04-27T04:25:13;100451.69;;;3.07;89.77
37778;BME280;23615;51.506;7.678;2023-04-27T04:27:39;100459.06;;;2.95;89.29
37778;BME280;23615;51.506;7.678;2023-04-27T04:30:05;100465.31;;;2.86;89.01
37778;BME280;23615;51.506;7.678;2023-04-27T04:32:32;100461.84;;;2.77;88.52
37778;BME280;23615;51.506;7.678;2023-04-27T04:34:58;100466.63;;;2.74;88.86
37778;BME280;23615;51.506;7.678;2023-04-27T04:37:25;100463.34;;;2.72;88.92
37778;BME280;23615;51.506;7.678;2023-04-27T04:39:51;100460.03;;;2.70;88.27
37778;BME280;23615;51.506;7.678;2023-04-27T04:42:16;100460.72;;;2.72;88.87
37778;BME280;23615;51.506;7.678;2023-04-27T04:44:41;100467.13;;;2.69;88.33
37778;BME280;23615;51.506;7.678;2023-04-27T04:47:07;100459.03;;;2.62;87.90
37778;BME280;23615;51.506;7.678;2023-04-27T04:49:34;100466.75;;;2.64;87.57
37778;BME280;23615;51.506;7.678;2023-04-27T04:51:59;100460.84;;;2.54;88.02
37778;BME280;23615;51.506;7.678;2023-04-27T04:54:25;100467.09;;;2.53;88.28
37778;BME280;23615;51.506;7.678;2023-04-27T04:56:50;100458.00;;;2.47;88.95
37778;BME280;23615;51.506;7.678;2023-04-27T04:59:15;100455.56;;;2.46;88.88
37778;BME280;23615;51.506;7.678;2023-04-27T05:01:41;100455.88;;;2.43;89.17
37778;BME280;23615;51.506;7.678;2023-04-27T05:04:07;100458.34;;;2.44;90.04
37778;BME280;23615;51.506;7.678;2023-04-27T05:06:32;100455.38;;;2.47;90.16
37778;BME280;23615;51.506;7.678;2023-04-27T05:08:57;100457.53;;;2.52;90.17
37778;BME280;23615;51.506;7.678;2023-04-27T05:11:23;100462.16;;;2.58;90.13
37778;BME280;23615;51.506;7.678;2023-04-27T05:13:48;100460.69;;;2.63;90.70
37778;BME280;23615;51.506;7.678;2023-04-27T05:16:13;100464.78;;;2.66;90.73
37778;BME280;23615;51.506;7.678;2023-04-27T05:18:39;100465.00;;;2.73;90.32
37778;BME280;23615;51.506;7.678;2023-04-27T05:21:04;100465.31;;;2.86;90.82
37778;BME280;23615;51.506;7.678;2023-04-27T05:23:30;100471.94;;;2.98;90.95
37778;BME280;23615;51.506;7.678;2023-04-27T05:25:55;100471.28;;;3.04;90.69
37778;BME280;23615;51.506;7.678;2023-04-27T05:28:20;100475.41;;;3.07;90.54
37778;BME280;23615;51.506;7.678;2023-04-27T05:30:46;100466.16;;;3.11;90.84
37778;BME280;23615;51.506;7.678;2023-04-27T05:33:11;100474.75;;;3.13;91.21
37778;BME280;23615;51.506;7.678;2023-04-27T05:35:36;100470.81;;;3.17;91.61
37778;BME280;23615;51.506;7.678;2023-04-27T05:38:02;100477.06;;;3.24;91.63
37778;BME280;23615;51.506;7.678;2023-04-27T05:40:28;100474.56;;;3.30;91.67
37778;BME280;23615;51.506;7.678;2023-04-27T05:42:53;100475.06;;;3.42;91.86
37778;BME280;23615;51.506;7.678;2023-04-27T05:45:19;100482.66;;;3.53;92.33
37778;BME280;23615;51.506;7.678;2023-04-27T05:47:45;100490.22;;;3.56;92.64
37778;BME280;23615;51.506;7.678;2023-04-27T05:50:10;100498.63;;;3.68;93.13
37778;BME280;23615;51.506;7.678;2023-04-27T05:52:36;100496.94;;;3.75;92.75
37778;BME280;23615;51.506;7.678;2023-04-27T05:55:01;100497.59;;;3.85;93.15
37778;BME280;23615;51.506;7.678;2023-04-27T05:57:27;100507.97;;;3.95;92.74
37778;BME280;23615;51.506;7.678;2023-04-27T05:59:52;100509.44;;;3.97;93.50
37778;BME280;23615;51.506;7.678;2023-04-27T06:02:18;100513.06;;;4.04;93.08
37778;BME280;23615;51.506;7.678;2023-04-27T06:04:44;100509.22;;;4.15;92.68
37778;BME280;23615;51.506;7.678;2023-04-27T06:07:10;100504.09;;;4.22;93.14
37778;BME280;23615;51.506;7.678;2023-04-27T06:09:36;100499.28;;;4.25;92.38
37778;BME280;23615;51.506;7.678;2023-04-27T06:12:05;100514.13;;;4.34;92.30
37778;BME280;23615;51.506;7.678;2023-04-27T06:15:08;100503.19;;;4.37;91.97
37778;BME280;23615;51.506;7.678;2023-04-27T06:18:01;100514.91;;;4.43;91.27
37778;BME280;23615;51.506;7.678;2023-04-27T06:23:20;100512.72;;;4.55;89.58
37778;BME280;23615;51.506;7.678;2023-04-27T06:25:45;100511.63;;;4.72;88.66
37778;BME280;23615;51.506;7.678;2023-04-27T06:28:10;100517.53;;;4.82;88.07
37778;BME280;23615;51.506;7.678;2023-04-27T06:30:35;100516.16;;;4.86;87.40
37778;BME280;23615;51.506;7.678;2023-04-27T06:33:01;100515.28;;;4.94;87.42
37778;BME280;23615;51.506;7.678;2023-04-27T06:35:26;100525.47;;;5.05;86.98
37778;BME280;23615;51.506;7.678;2023-04-27T06:37:52;100529.59;;;5.07;86.36
37778;BME280;23615;51.506;7.678;2023-04-27T06:40:17;100527.06;;;5.14;86.17
37778;BME280;23615;51.506;7.678;2023-04-27T06:42:42;100527.72;;;5.16;85.55
37778;BME280;23615;51.506;7.678;2023-04-27T06:45:08;100524.53;;;5.20;84.58
37778;BME280;23615;51.506;7.678;2023-04-27T06:47:33;100525.84;;;5.24;84.31
37778;BME280;23615;51.506;7.678;2023-04-27T06:49:58;100532.41;;;5.28;83.42
37778;BME280;23615;51.506;7.678;2023-04-27T06:52:24;100525.22;;;5.37;82.28
37778;BME280;23615;51.506;7.678;2023-04-27T06:54:49;100520.50;;;5.47;81.80
37778;BME280;23615;51.506;7.678;2023-04-27T06:57:15;100515.44;;;5.46;82.30
37778;BME280;23615;51.506;7.678;2023-04-27T06:59:40;100515.97;;;5.56;82.06
37778;BME280;23615;51.506;7.678;2023-04-27T07:02:06;100514.91;;;5.65;82.10
37778;BME280;23615;51.506;7.678;2023-04-27T07:04:31;100511.00;;;5.76;81.70
37778;BME280;23615;51.506;7.678;2023-04-27T07:06:57;100500.53;;;5.82;81.19
37778;BME280;23615;51.506;7.678;2023-04-27T07:09:22;100505.88;;;5.97;81.49
37778;BME280;23615;51.506;7.678;2023-04-27T07:11:47;100506.78;;;6.19;81.30
37778;BME280;23615;51.506;7.678;2023-04-27T07:14:13;100497.72;;;6.13;81.02
37778;BME280;23615;51.506;7.678;2023-04-27T07:16:38;100498.47;;;6.22;80.45
37778;BME280;23615;51.506;7.678;2023-04-27T07:19:03;100501.75;;;6.24;80.72
37778;BME280;23615;51.506;7.678;2023-04-27T07:21:29;100502.28;;;6.19;79.32
37778;BME280;23615;51.506;7.678;2023-04-27T07:23:54;100500.66;;;6.18;79.10
37778;BME280;23615;51.506;7.678;2023-04-27T07:26:19;100497.81;;;6.20;77.66
37778;BME280;23615;51.506;7.678;2023-04-27T07:28:48;100509.63;;;6.17;77.32
37778;BME280;23615;51.506;7.678;2023-04-27T07:31:14;100498.63;;;6.20;76.87
37778;BME280;23615;51.506;7.678;2023-04-27T07:33:40;100499.72;;;6.41;77.04
37778;BME280;23615;51.506;7.678;2023-04-27T07:36:05;100500.00;;;6.46;77.37
37778;BME280;23615;51.506;7.678;2023-04-27T07:38:31;100495.97;;;6.50;76.91
37778;BME280;23615;51.506;7.678;2023-04-27T07:41:00;100503.38;;;6.54;76.87
37778;BME280;23615;51.506;7.678;2023-04-27T07:43:30;100499.81;;;6.47;76.08
37778;BME280;23615;51.506;7.678;2023-04-27T07:45:56;100503.69;;;6.66;76.72
37778;BME280;23615;51.506;7.678;2023-04-27T07:48:22;100503.91;;;6.64;76.51
37778;BME280;23615;51.506;7.678;2023-04-27T07:50:48;100508.56;;;6.62;76.52
37778;BME280;23615;51.506;7.678;2023-04-27T07:53:13;100500.03;;;6.67;76.57
37778;BME280;23615;51.506;7.678;2023-04-27T07:55:38;100498.56;;;6.79;75.91
37778;BME280;23615;51.506;7.678;2023-04-27T07:58:04;100488.31;;;6.76;76.69
37778;BME280;23615;51.506;7.678;2023-04-27T08:00:30;100495.16;;;6.85;77.20
37778;BME280;23615;51.506;7.678;2023-04-27T08:02:55;100498.31;;;6.95;76.32
37778;BME280;23615;51.506;7.678;2023-04-27T08:05:21;100496.19;;;7.05;75.80
37778;BME280;23615;51.506;7.678;2023-04-27T08:07:46;100501.13;;;7.08;75.98
37778;BME280;23615;51.506;7.678;2023-04-27T08:10:12;100505.78;;;7.06;76.33
37778;BME280;23615;51.506;7.678;2023-04-27T08:12:37;100500.94;;;7.10;75.70
37778;BME280;23615;51.506;7.678;2023-04-27T08:15:04;100502.19;;;7.14;75.98
37778;BME280;23615;51.506;7.678;2023-04-27T08:17:29;100508.38;;;7.21;76.26
37778;BME280;23615;51.506;7.678;2023-04-27T08:19:55;100508.75;;;7.39;76.73
37778;BME280;23615;51.506;7.678;2023-04-27T08:22:20;100499.59;;;7.42;76.70
37778;BME280;23615;51.506;7.678;2023-04-27T08:24:45;100492.81;;;7.39;75.75
37778;BME280;23615;51.506;7.678;2023-04-27T08:27:10;100499.44;;;7.50;75.50
37778;BME280;23615;51.506;7.678;2023-04-27T08:29:36;100509.06;;;7.51;74.98
37778;BME280;23615;51.506;7.678;2023-04-27T08:32:02;100498.44;;;7.51;74.54
37778;BME280;23615;51.506;7.678;2023-04-27T08:34:28;100502.78;;;7.59;74.17
37778;BME280;23615;51.506;7.678;2023-04-27T08:36:54;100497.34;;;7.67;73.99
37778;BME280;23615;51.506;7.678;2023-04-27T08:39:20;100500.75;;;7.88;76.13
37778;BME280;23615;51.506;7.678;2023-04-27T08:41:45;100507.75;;;7.96;75.28
37778;BME280;23615;51.506;7.678;2023-04-27T08:44:11;100491.84;;;8.03;75.73
37778;BME280;23615;51.506;7.678;2023-04-27T08:46:37;100497.56;;;8.00;73.54
37778;BME280;23615;51.506;7.678;2023-04-27T08:49:03;100499.66;;;8.11;73.69
37778;BME280;23615;51.506;7.678;2023-04-27T08:51:28;100490.94;;;8.17;73.97
37778;BME280;23615;51.506;7.678;2023-04-27T08:53:56;100487.78;;;8.35;73.87
37778;BME280;23615;51.506;7.678;2023-04-27T08:56:24;100489.00;;;8.39;73.00
37778;BME280;23615;51.506;7.678;2023-04-27T08:58:53;100488.63;;;8.48;72.94
37778;BME280;23615;51.506;7.678;2023-04-27T09:01:20;100497.44;;;8.49;72.40
37778;BME280;23615;51.506;7.678;2023-04-27T09:03:46;100485.97;;;8.48;70.74
37778;BME280;23615;51.506;7.678;2023-04-27T09:06:13;100494.00;;;8.55;71.64
37778;BME280;23615;51.506;7.678;2023-04-27T09:11:11;100497.16;;;8.78;72.01
37778;BME280;23615;51.506;7.678;2023-04-27T09:13:38;100500.00;;;8.77;70.16
37778;BME280;23615;51.506;7.678;2023-04-27T09:16:04;100492.84;;;8.84;69.19
37778;BME280;23615;51.506;7.678;2023-04-27T09:18:30;100492.28;;;8.95;70.29
37778;BME280;23615;51.506;7.678;2023-04-27T09:20:59;100483.66;;;8.93;68.42
37778;BME280;23615;51.506;7.678;2023-04-27T09:25:55;100489.63;;;8.95;68.92
37778;BME280;23615;51.506;7.678;2023-04-27T09:28:22;100487.38;;;8.98;67.03
37778;BME280;23615;51.506;7.678;2023-04-27T09:30:55;100479.63;;;9.10;65.85
37778;BME280;23615;51.506;7.678;2023-04-27T09:33:25;100480.03;;;9.14;64.96
37778;BME280;23615;51.506;7.678;2023-04-27T09:35:51;100473.47;;;9.16;65.36
37778;BME280;23615;51.506;7.678;2023-04-27T09:38:18;100471.03;;;9.21;64.41
37778;BME280;23615;51.506;7.678;2023-04-27T09:40:44;100468.97;;;9.30;63.84
37778;BME280;23615;51.506;7.678;2023-04-27T09:43:09;100461.00;;;9.30;64.02
37778;BME280;23615;51.506;7.678;2023-04-27T09:45:36;100459.56;;;9.41;64.16
37778;BME280;23615;51.506;7.678;2023-04-27T09:48:03;100460.19;;;9.43;64.04
37778;BME280;23615;51.506;7.678;2023-04-27T09:50:29;100456.91;;;9.60;64.84
37778;BME280;23615;51.506;7.678;2023-04-27T09:52:55;100457.91;;;9.72;63.78
37778;BME280;23615;51.506;7.678;2023-04-27T09:55:32;100449.28;;;9.77;60.82
37778;BME280;23615;51.506;7.678;2023-04-27T10:09:03;100448.41;;;10.09;59.40
37778;BME280;23615;51.506;7.678;2023-04-27T10:11:37;100437.50;;;10.24;60.40
37778;BME280;23615;51.506;7.678;2023-04-27T10:14:06;100442.41;;;10.34;60.91
37778;BME280;23615;51.506;7.678;2023-04-27T10:16:43;100431.44;;;10.48;61.27
37778;BME280;23615;51.506;7.678;2023-04-27T10:19:09;100433.03;;;10.63;60.43
37778;BME280;23615;51.506;7.678;2023-04-27T10:21:35;100437.09;;;10.65;58.45
37778;BME280;23615;51.506;7.678;2023-04-27T10:24:06;100435.53;;;10.51;58.81
37778;BME280;23615;51.506;7.678;2023-04-27T10:26:32;100432.63;;;10.59;58.77
37778;BME280;23615;51.506;7.678;2023-04-27T10:29:05;100428.88;;;10.73;58.40
37778;BME280;23615;51.506;7.678;2023-04-27T10:31:33;100435.19;;;10.79;56.72
37778;BME280;23615;51.506;7.678;2023-04-27T10:34:09;100424.66;;;10.91;56.02
37778;BME280;23615;51.506;7.678;2023-04-27T10:36:36;100428.50;;;10.95;57.71
37778;BME280;23615;51.506;7.678;2023-04-27T10:39:16;100422.75;;;11.22;59.09
37778;BME280;23615;51.506;7.678;2023-04-27T10:41:53;100424.31;;;11.30;58.82
37778;BME280;23615;51.506;7.678;2023-04-27T10:44:19;100408.69;;;11.34;56.40
37778;BME280;23615;51.506;7.678;2023-04-27T10:46:50;100402.44;;;11.46;56.15
37778;BME280;23615;51.506;7.678;2023-04-27T10:49:15;100404.50;;;11.44;54.54
37778;BME280;23615;51.506;7.678;2023-04-27T10:51:41;100403.59;;;11.50;57.19
37778;BME280;23615;51.506;7.678;2023-04-27T10:54:07;100403.50;;;11.63;59.85
37778;BME280;23615;51.506;7.678;2023-04-27T10:56:32;100404.19;;;11.77;58.52
37778;BME280;23615;51.506;7.678;2023-04-27T10:59:04;100399.75;;;11.89;57.82
37778;BME280;23615;51.506;7.678;2023-04-27T11:01:30;100391.94;;;11.88;55.96
37778;BME280;23615;51.506;7.678;2023-04-27T11:04:00;100394.31;;;11.96;55.74
37778;BME280;23615;51.506;7.678;2023-04-27T11:06:27;100389.94;;;12.02;55.86
37778;BME280;23615;51.506;7.678;2023-04-27T11:08:53;100390.16;;;12.00;55.28
37778;BME280;23615;51.506;7.678;2023-04-27T11:11:18;100385.25;;;11.97;53.97
37778;BME280;23615;51.506;7.678;2023-04-27T11:13:47;100378.28;;;11.96;54.41
37778;BME280;23615;51.506;7.678;2023-04-27T11:16:14;100379.91;;;11.97;54.73
37778;BME280;23615;51.506;7.678;2023-04-27T11:18:39;100383.78;;;12.01;54.88
37778;BME280;23615;51.506;7.678;2023-04-27T11:21:13;100380.03;;;12.02;55.03
37778;BME280;23615;51.506;7.678;2023-04-27T11:23:39;100378.94;;;12.10;55.70
37778;BME280;23615;51.506;7.678;2023-04-27T11:26:11;100384.34;;;12.21;55.14
37778;BME280;23615;51.506;7.678;2023-04-27T11:28:39;100388.03;;;12.20;54.05
37778;BME280;23615;51.506;7.678;2023-04-27T11:31:05;100376.16;;;12.34;55.50
37778;BME280;23615;51.506;7.678;2023-04-27T11:33:31;100379.53;;;12.42;54.81
37778;BME280;23615;51.506;7.678;2023-04-27T11:35:56;100381.88;;;12.38;55.26
37778;BME280;23615;51.506;7.678;2023-04-27T11:38:22;100383.19;;;12.47;55.13
37778;BME280;23615;51.506;7.678;2023-04-27T11:41:02;100381.91;;;12.50;54.73
37778;BME280;23615;51.506;7.678;2023-04-27T11:43:28;100381.19;;;12.43;53.64
37778;BME280;23615;51.506;7.678;2023-04-27T11:45:54;100379.44;;;12.48;54.42
37778;BME280;23615;51.506;7.678;2023-04-27T11:48:22;100379.44;;;12.48;54.22
37778;BME280;23615;51.506;7.678;2023-04-27T11:50:48;100381.19;;;12.43;53.78
37778;BME280;23615;51.506;7.678;2023-04-27T11:53:14;100378.63;;;12.48;53.86
37778;BME280;23615;51.506;7.678;2023-04-27T11:55:41;100380.84;;;12.81;52.19
37778;BME280;23615;51.506;7.678;2023-04-27T11:58:14;100374.34;;;12.47;52.93
37778;BME280;23615;51.506;7.678;2023-04-27T12:00:40;100378.72;;;12.41;53.58
37778;BME280;23615;51.506;7.678;2023-04-27T12:03:05;100377.59;;;12.49;54.46
37778;BME280;23615;51.506;7.678;2023-04-27T12:05:31;100362.28;;;12.56;55.07
37778;BME280;23615;51.506;7.678;2023-04-27T12:07:57;100373.22;;;12.66;55.67
37778;BME280;23615;51.506;7.678;2023-04-27T12:10:22;100380.69;;;12.64;54.78
37778;BME280;23615;51.506;7.678;2023-04-27T12:12:48;100371.06;;;12.45;53.94
37778;BME280;23615;51.506;7.678;2023-04-27T12:15:13;100367.53;;;12.62;54.15
37778;BME280;23615;51.506;7.678;2023-04-27T12:17:39;100365.44;;;12.64;54.22
37778;BME280;23615;51.506;7.678;2023-04-27T12:20:05;100363.59;;;12.65;54.43
37778;BME280;23615;51.506;7.678;2023-04-27T12:22:30;100356.38;;;12.77;56.03
37778;BME280;23615;51.506;7.678;2023-04-27T12:24:56;100364.06;;;12.85;53.99
37778;BME280;23615;51.506;7.678;2023-04-27T12:27:21;100353.63;;;12.95;53.18
37778;BME280;23615;51.506;7.678;2023-04-27T12:29:47;100350.94;;;12.95;53.39
37778;BME280;23615;51.506;7.678;2023-04-27T12:32:12;100356.22;;;13.14;54.11
37778;BME280;23615;51.506;7.678;2023-04-27T12:34:37;100353.09;;;13.28;53.52
37778;BME280;23615;51.506;7.678;2023-04-27T12:37:04;100341.44;;;13.34;53.06
37778;BME280;23615;51.506;7.678;2023-04-27T12:39:29;100346.22;;;13.44;53.33
37778;BME280;23615;51.506;7.678;2023-04-27T12:41:55;100351.13;;;13.35;52.58
37778;BME280;23615;51.506;7.678;2023-04-27T12:44:21;100347.94;;;13.62;53.00
37778;BME280;23615;51.506;7.678;2023-04-27T12:46:47;100340.72;;;13.74;52.71
37778;BME280;23615;51.506;7.678;2023-04-27T12:49:12;100341.28;;;13.76;52.30
37778;BME280;23615;51.506;7.678;2023-04-27T12:51:38;100342.72;;;13.43;50.61
37778;BME280;23615;51.506;7.678;2023-04-27T12:54:04;100348.31;;;13.42;54.17
37778;BME280;23615;51.506;7.678;2023-04-27T12:56:31;100338.63;;;13.53;53.18
37778;BME280;23615;51.506;7.678;2023-04-27T12:58:56;100340.28;;;13.42;52.52
37778;BME280;23615;51.506;7.678;2023-04-27T13:01:22;100335.63;;;13.37;54.95
37778;BME280;23615;51.506;7.678;2023-04-27T13:03:57;100337.72;;;13.35;53.23
37778;BME280;23615;51.506;7.678;2023-04-27T13:06:23;100338.19;;;13.44;53.87
37778;BME280;23615;51.506;7.678;2023-04-27T13:08:48;100327.91;;;13.53;52.82
37778;BME280;23615;51.506;7.678;2023-04-27T13:11:15;100333.50;;;13.51;52.50